Aérodrome :
LOGIN :

S'inscrire | Disclaimer

   EN    FR    IT 

 










Légende :    VFR   VFR Marginal   IFR   IFR Intensif   IFR Très Intensif
Visi : 
Plafond : 
>= 8 km
>= 3000ft
5 à 8 km
1000 à 3000 ft
1500m à 5 km
500 à 1000 ft
800 à 1500m
200 à 500 ft
< 800m
< 200 ft
Symboles :   Orages  Brouillard  Fortes neiges  Fortes précipitations  Vent > 20 kt
SIGMETs :   Divers  Orages  Givrage  Turbulence  Onde Orograph.  Cendres Volcan.






- Altitude de l'aérodrome : 13 ft
- Code IATA : OST


EBOS - Oostend bruges Int.

DERNIER METAR :
  • 270550Z 02007KT CAVOK 15/09 Q1035 NOSIG

METARs EXPIRÉS :
  • 270520Z 03007KT CAVOK 14/08 Q1035 NOSIG
  • 270450Z 02006KT CAVOK 14/08 Q1035 NOSIG
  • 270420Z 02007KT CAVOK 13/07 Q1035 NOSIG
  • 270350Z 03006KT CAVOK 12/08 Q1035 NOSIG
  • 270320Z 03006KT CAVOK 13/09 Q1035 NOSIG

TAF TAF EBOS
Valide du 27 à 06h jusqu'au 28 à 12h UTC


270501Z 2706/2812 02009KT 9999 FEW030
PROB30
TEMPO 2720/2803 BKN008
BECMG 2805/2807 08010KT



MET'MAP, la Météo Aéronautique d'un coup d'oeil ! - Copyright ORBIFLY Décembre 2007 - Disclaimer

ORBIFLY MET'MAP TEAM :

Programmation & Développement : Alexandra Zaïnal
Sur une idée originale de : Baudouin d'Aumeries
Assistance à la programmation : Marc-Olivier Méhu
Soutien technique & logistique : Manuel Goepfert

Contact : metmap@orbifly.com




SOURCES & CREDITS :

   NOAA